Volcan De Teneguia — ECLA — position and weather

sailwx.info

Track history (hours):
 
Tides and Currents Weather Stations Pressure Air Temp Water Temp Dewpoint Dewpoint Depression Visibility Wind Speed Wind Dir Waves Ship Positions

Volcan De Teneguia

Last reported at 2018-Jun-16 18:01 UTC. Time now 2018-Jun-20 00:05 UTC.
Position N 30°43' W 012°53'.

Length 145 m; draft 5.3 m.

Type: Ship (hazmat cat A). MMSI: 225317000.

Date/timePositionNaut miles runAvg speedWind from/ knotsBaromVisibWave heightAir tempDewpointWater temp
2018-Jun-16 18:01N 30°43' W 012°53'011.7
2018-Jun-16 17:59N 30°43' W 012°53'712.1
2018-Jun-16 17:24N 30°38' W 012°60'511.6
2018-Jun-16 16:56N 30°35' W 013°05'511.8
2018-Jun-16 16:29N 30°32' W 013°10'612.0
2018-Jun-16 15:59N 30°28' W 013°15'612.2
2018-Jun-16 15:30N 30°25' W 013°21'6512.5
2018-Jun-16 10:17N 29°44' W 014°20'1012.3
2018-Jun-16 09:27N 29°38' W 014°29'812.3
2018-Jun-16 08:51N 29°33' W 014°36'412.5
2018-Jun-16 08:30N 29°30' W 014°40'712.4
2018-Jun-16 07:54N 29°26' W 014°46'512.7
2018-Jun-16 07:29N 29°22' W 014°51'612.4
2018-Jun-16 06:59N 29°19' W 014°57'712.5
2018-Jun-16 06:24N 29°14' W 015°03'512.5
2018-Jun-16 06:00N 29°11' W 015°08'612.5
2018-Jun-16 05:28N 29°07' W 015°13'612.5
2018-Jun-16 05:00N 29°03' W 015°19'612.7
2018-Jun-16 04:30N 28°59' W 015°24'612.9
2018-Jun-16 04:00N 28°55' W 015°30'713.5
2018-Jun-16 03:30N 28°51' W 015°36'713.7
2018-Jun-16 03:00N 28°47' W 015°43'713.4
2018-Jun-16 02:30N 28°43' W 015°49'713.7
2018-Jun-16 02:00N 28°39' W 015°55'713.8
2018-Jun-16 01:31N 28°34' W 016°01'713.5
2018-Jun-16 01:01N 28°30' W 016°07'612.6
2018-Jun-16 00:30N 28°29' W 016°14'1 1.0
2018-Jun-15 23:58N 28°29' W 016°14'0 0.0
2018-Jun-15 23:28N 28°29' W 016°14'0 0.0
2018-Jun-15 22:58N 28°29' W 016°14'0 0.0
2018-Jun-15 22:28N 28°29' W 016°14'0 0.0
2018-Jun-15 21:58N 28°29' W 016°14'0 0.0
2018-Jun-15 21:28N 28°29' W 016°14'0 0.0
2018-Jun-15 20:58N 28°29' W 016°14'0 0.0
2018-Jun-15 20:28N 28°29' W 016°14'0 0.0
2018-Jun-15 19:58N 28°29' W 016°14'0 0.0
2018-Jun-15 19:28N 28°29' W 016°14'1 1.4
2018-Jun-15 19:01N 28°29' W 016°14'2 4.0
2018-Jun-15 18:30N 28°28' W 016°12'612.3
2018-Jun-15 18:00N 28°26' W 016°05'713.3
2018-Jun-15 17:30N 28°24' W 015°58'713.5
2018-Jun-15 17:00N 28°21' W 015°51'713.5
2018-Jun-15 16:30N 28°19' W 015°44'713.4
2018-Jun-15 16:00N 28°16' W 015°36'713.1
2018-Jun-15 15:30N 28°14' W 015°29'612.6
2018-Jun-15 15:00N 28°11' W 015°23'3 6.4
2018-Jun-15 14:27N 28°08' W 015°25'1 2.0
2018-Jun-15 13:58N 28°09' W 015°25'0 0.0
2018-Jun-15 13:25N 28°09' W 015°25'0 0.0
2018-Jun-15 12:58N 28°09' W 015°25'0 0.0
2018-Jun-15 12:25N 28°09' W 015°25'0 0.0
2018-Jun-15 11:58N 28°09' W 015°25'0 0.0
2018-Jun-15 11:28N 28°09' W 015°25'0 0.0
2018-Jun-15 10:58N 28°09' W 015°25'0 0.0
2018-Jun-15 10:16N 28°09' W 015°25'0 0.0
2018-Jun-15 09:58N 28°09' W 015°25'0 0.0
2018-Jun-15 09:28N 28°09' W 015°25'0 0.0
2018-Jun-15 08:49N 28°09' W 015°25'0 0.0
2018-Jun-15 08:19N 28°09' W 015°25'0 0.0
2018-Jun-15 07:49N 28°09' W 015°25'0 0.0
2018-Jun-15 07:22N 28°09' W 015°25'0 0.0
2018-Jun-15 06:52N 28°09' W 015°25'0 0.0
2018-Jun-15 06:23N 28°09' W 015°25'0 0.7
2018-Jun-15 06:00N 28°09' W 015°25'2 4.4
2018-Jun-15 05:30N 28°08' W 015°22'5 9.3
2018-Jun-15 05:00N 28°12' W 015°20'4 8.4
2018-Jun-15 04:30N 28°13' W 015°25'510.3
2018-Jun-15 04:00N 28°14' W 015°31'510.3
2018-Jun-15 03:30N 28°14' W 015°37'5 9.9
2018-Jun-15 03:00N 28°14' W 015°42'5 9.9
2018-Jun-15 02:30N 28°14' W 015°48'5 9.7
2018-Jun-15 01:59N 28°15' W 015°53'510.1
2018-Jun-15 01:30N 28°17' W 015°58'510.4
2018-Jun-15 01:00N 28°21' W 016°03'510.4
2018-Jun-15 00:30N 28°24' W 016°07'510.9
2018-Jun-15 00:00N 28°27' W 016°12'2 4.7
2018-Jun-14 23:29N 28°29' W 016°14'0 0.0
2018-Jun-14 22:59N 28°29' W 016°14'0 0.0
2018-Jun-14 22:29N 28°29' W 016°14'0 0.0
2018-Jun-14 21:59N 28°29' W 016°14'0 0.0
2018-Jun-14 21:29N 28°29' W 016°14'0 0.0
2018-Jun-14 20:59N 28°29' W 016°14'0 0.0
2018-Jun-14 20:29N 28°29' W 016°14'0 0.0
2018-Jun-14 19:59N 28°29' W 016°14'0 0.0
2018-Jun-14 19:29N 28°29' W 016°14'0 0.0
2018-Jun-14 18:59N 28°29' W 016°14'0 0.0
2018-Jun-14 18:29N 28°29' W 016°14'0 0.0
2018-Jun-14 18:00N 28°29' W 016°14'1 1.8
2018-Jun-14 17:30N 28°29' W 016°13'3 6.9
2018-Jun-14 17:00N 28°29' W 016°09'713.7
2018-Jun-14 16:30N 28°33' W 016°03'913.8
2018-Jun-14 15:52N 28°40' W 015°56'713.9
2018-Jun-14 15:22N 28°44' W 015°50'613.7
2018-Jun-14 14:55N 28°49' W 015°45'613.6
2018-Jun-14 14:30N 28°53' W 015°40'713.6
2018-Jun-14 14:01N 28°57' W 015°35'713.8
2018-Jun-14 13:30N 29°02' W 015°29'714.0
2018-Jun-14 13:00N 29°07' W 015°23'813.9
2018-Jun-14 12:27N 29°12' W 015°17'3113.5
2018-Jun-14 10:08N 29°35' W 014°52'313.1
2018-Jun-14 09:52N 29°37' W 014°49'  
2018-Jun-09 05:03N 29°16' W 015°13'113.8
2018-Jun-09 04:57N 29°15' W 015°14'1214.0
2018-Jun-09 04:04N 29°07' W 015°24'414.1
2018-Jun-09 03:49N 29°04' W 015°27'514.0
2018-Jun-09 03:29N 29°01' W 015°31'714.2
2018-Jun-09 03:00N 28°56' W 015°36'714.3
2018-Jun-09 02:30N 28°51' W 015°42'714.4
2018-Jun-09 02:00N 28°46' W 015°48'714.4
2018-Jun-09 01:30N 28°41' W 015°54'714.3
2018-Jun-09 01:00N 28°36' W 015°60'714.1
2018-Jun-09 00:31N 28°31' W 016°06'813.3
2018-Jun-08 23:56N 28°29' W 016°14'1 1.0
2018-Jun-08 23:24N 28°29' W 016°14'0 0.0
2018-Jun-08 22:54N 28°29' W 016°14'0 0.0
2018-Jun-08 22:24N 28°29' W 016°14'0 0.0
2018-Jun-08 21:57N 28°29' W 016°14'0 0.0
2018-Jun-08 20:45N 28°29' W 016°14'0 0.0
2018-Jun-08 20:27N 28°29' W 016°14'0 0.0
2018-Jun-08 19:57N 28°29' W 016°14'0 0.0
2018-Jun-08 19:16N 28°29' W 016°14'0 0.5
2018-Jun-08 19:00N 28°29' W 016°14'2 4.3
2018-Jun-08 18:30N 28°27' W 016°12'4 7.7
2018-Jun-08 18:00N 28°26' W 016°08'714.5
2018-Jun-08 17:30N 28°24' W 016°00'714.0
2018-Jun-08 17:00N 28°21' W 015°53'713.8
2018-Jun-08 16:30N 28°19' W 015°46'713.8
2018-Jun-08 16:00N 28°17' W 015°38'713.5
2018-Jun-08 15:30N 28°14' W 015°31'713.3
2018-Jun-08 14:59N 28°12' W 015°24'4 8.0
2018-Jun-08 14:29N 28°08' W 015°25'1 2.5
2018-Jun-08 13:59N 28°09' W 015°25'0 0.0
2018-Jun-08 13:29N 28°09' W 015°25'0 0.0
2018-Jun-08 12:59N 28°09' W 015°25'0 0.0
2018-Jun-08 12:29N 28°09' W 015°25'0 0.0
2018-Jun-08 11:59N 28°09' W 015°25'0 0.0
2018-Jun-08 11:29N 28°09' W 015°25'0 0.0
2018-Jun-08 10:59N 28°09' W 015°25'0 0.0
2018-Jun-08 10:29N 28°09' W 015°25'0 0.0
2018-Jun-08 09:50N 28°09' W 015°25'0 0.0
2018-Jun-08 09:23N 28°09' W 015°25'0 0.0
2018-Jun-08 08:53N 28°09' W 015°25'0 0.0
2018-Jun-08 08:23N 28°09' W 015°25'0 0.0
2018-Jun-08 07:53N 28°09' W 015°25'0 0.0
2018-Jun-08 07:23N 28°09' W 015°25'0 0.0
2018-Jun-08 06:53N 28°09' W 015°25'0 0.0
2018-Jun-08 06:20N 28°09' W 015°25'0 0.3
2018-Jun-08 06:01N 28°09' W 015°25'2 4.8
2018-Jun-08 05:30N 28°07' W 015°23'510.1
2018-Jun-08 05:00N 28°12' W 015°22'612.2
2018-Jun-08 04:30N 28°14' W 015°29'611.7
2018-Jun-08 04:00N 28°15' W 015°35'611.3
2018-Jun-08 03:30N 28°16' W 015°42'510.1
2018-Jun-08 03:00N 28°14' W 015°36'5 9.5
2018-Jun-08 02:30N 28°13' W 015°42'510.8
2018-Jun-08 02:00N 28°13' W 015°48'810.8
2018-Jun-08 01:17N 28°15' W 015°56'511.4
2018-Jun-08 00:53N 28°18' W 016°00'511.4
2018-Jun-08 00:28N 28°21' W 016°04'611.7
2018-Jun-07 23:58N 28°25' W 016°09'511.6
2018-Jun-07 23:30N 28°28' W 016°14'1 0.2
2018-Jun-07 18:53N 28°29' W 016°14'0 0.8
2018-Jun-07 18:30N 28°29' W 016°14'510.7
2018-Jun-07 18:00N 28°30' W 016°08'511.0
2018-Jun-07 17:30N 28°33' W 016°03'510.9
2018-Jun-07 17:00N 28°37' W 015°59'510.8
2018-Jun-07 16:30N 28°41' W 015°54'510.8
2018-Jun-07 16:00N 28°45' W 015°50'611.0
2018-Jun-07 15:29N 28°49' W 015°45'511.0
2018-Jun-07 15:00N 28°52' W 015°41'511.0
2018-Jun-07 14:30N 28°56' W 015°36'510.8
2018-Jun-07 14:00N 28°60' W 015°32'510.9
2018-Jun-07 13:30N 29°04' W 015°28'510.8
2018-Jun-07 13:00N 29°07' W 015°23'610.9
2018-Jun-07 12:27N 29°12' W 015°18'511.0
2018-Jun-07 12:00N 29°15' W 015°14'1110.9
2018-Jun-07 10:58N 29°23' W 015°05'  
Track history (hours):
 
Tides and Currents Weather Stations Pressure Air Temp Water Temp Dewpoint Dewpoint Depression Visibility Wind Speed Wind Dir Waves Ship Positions

Volcan De Teneguia

Last reported at 2018-Jun-16 18:01 UTC. Time now 2018-Jun-20 00:05 UTC.
Position N 30°43' W 012°53'.

Length 145 m; draft 5.3 m.

Type: Ship (hazmat cat A). MMSI: 225317000.

Date/timePositionNaut miles runAvg speedWind from/ knotsBaromVisibWave heightAir tempDewpointWater temp
2018-Jun-16 18:01N 30°43' W 012°53'011.7
2018-Jun-16 17:59N 30°43' W 012°53'712.1
2018-Jun-16 17:24N 30°38' W 012°60'511.6
2018-Jun-16 16:56N 30°35' W 013°05'511.8
2018-Jun-16 16:29N 30°32' W 013°10'612.0
2018-Jun-16 15:59N 30°28' W 013°15'612.2
2018-Jun-16 15:30N 30°25' W 013°21'6512.5
2018-Jun-16 10:17N 29°44' W 014°20'1012.3
2018-Jun-16 09:27N 29°38' W 014°29'812.3
2018-Jun-16 08:51N 29°33' W 014°36'412.5
2018-Jun-16 08:30N 29°30' W 014°40'712.4
2018-Jun-16 07:54N 29°26' W 014°46'512.7
2018-Jun-16 07:29N 29°22' W 014°51'612.4
2018-Jun-16 06:59N 29°19' W 014°57'712.5
2018-Jun-16 06:24N 29°14' W 015°03'512.5
2018-Jun-16 06:00N 29°11' W 015°08'612.5
2018-Jun-16 05:28N 29°07' W 015°13'612.5
2018-Jun-16 05:00N 29°03' W 015°19'612.7
2018-Jun-16 04:30N 28°59' W 015°24'612.9
2018-Jun-16 04:00N 28°55' W 015°30'713.5
2018-Jun-16 03:30N 28°51' W 015°36'713.7
2018-Jun-16 03:00N 28°47' W 015°43'713.4
2018-Jun-16 02:30N 28°43' W 015°49'713.7
2018-Jun-16 02:00N 28°39' W 015°55'713.8
2018-Jun-16 01:31N 28°34' W 016°01'713.5
2018-Jun-16 01:01N 28°30' W 016°07'612.6
2018-Jun-16 00:30N 28°29' W 016°14'1 1.0
2018-Jun-15 23:58N 28°29' W 016°14'0 0.0
2018-Jun-15 23:28N 28°29' W 016°14'0 0.0
2018-Jun-15 22:58N 28°29' W 016°14'0 0.0
2018-Jun-15 22:28N 28°29' W 016°14'0 0.0
2018-Jun-15 21:58N 28°29' W 016°14'0 0.0
2018-Jun-15 21:28N 28°29' W 016°14'0 0.0
2018-Jun-15 20:58N 28°29' W 016°14'0 0.0
2018-Jun-15 20:28N 28°29' W 016°14'0 0.0
2018-Jun-15 19:58N 28°29' W 016°14'0 0.0
2018-Jun-15 19:28N 28°29' W 016°14'1 1.4
2018-Jun-15 19:01N 28°29' W 016°14'2 4.0
2018-Jun-15 18:30N 28°28' W 016°12'612.3
2018-Jun-15 18:00N 28°26' W 016°05'713.3
2018-Jun-15 17:30N 28°24' W 015°58'713.5
2018-Jun-15 17:00N 28°21' W 015°51'713.5
2018-Jun-15 16:30N 28°19' W 015°44'713.4
2018-Jun-15 16:00N 28°16' W 015°36'713.1
2018-Jun-15 15:30N 28°14' W 015°29'612.6
2018-Jun-15 15:00N 28°11' W 015°23'3 6.4
2018-Jun-15 14:27N 28°08' W 015°25'1 2.0
2018-Jun-15 13:58N 28°09' W 015°25'0 0.0
2018-Jun-15 13:25N 28°09' W 015°25'0 0.0
2018-Jun-15 12:58N 28°09' W 015°25'0 0.0
2018-Jun-15 12:25N 28°09' W 015°25'0 0.0
2018-Jun-15 11:58N 28°09' W 015°25'0 0.0
2018-Jun-15 11:28N 28°09' W 015°25'0 0.0
2018-Jun-15 10:58N 28°09' W 015°25'0 0.0
2018-Jun-15 10:16N 28°09' W 015°25'0 0.0
2018-Jun-15 09:58N 28°09' W 015°25'0 0.0
2018-Jun-15 09:28N 28°09' W 015°25'0 0.0
2018-Jun-15 08:49N 28°09' W 015°25'0 0.0
2018-Jun-15 08:19N 28°09' W 015°25'0 0.0
2018-Jun-15 07:49N 28°09' W 015°25'0 0.0
2018-Jun-15 07:22N 28°09' W 015°25'0 0.0
2018-Jun-15 06:52N 28°09' W 015°25'0 0.0
2018-Jun-15 06:23N 28°09' W 015°25'0 0.7
2018-Jun-15 06:00N 28°09' W 015°25'2 4.4
2018-Jun-15 05:30N 28°08' W 015°22'5 9.3
2018-Jun-15 05:00N 28°12' W 015°20'4 8.4
2018-Jun-15 04:30N 28°13' W 015°25'510.3
2018-Jun-15 04:00N 28°14' W 015°31'510.3
2018-Jun-15 03:30N 28°14' W 015°37'5 9.9
2018-Jun-15 03:00N 28°14' W 015°42'5 9.9
2018-Jun-15 02:30N 28°14' W 015°48'5 9.7
2018-Jun-15 01:59N 28°15' W 015°53'510.1
2018-Jun-15 01:30N 28°17' W 015°58'510.4
2018-Jun-15 01:00N 28°21' W 016°03'510.4
2018-Jun-15 00:30N 28°24' W 016°07'510.9
2018-Jun-15 00:00N 28°27' W 016°12'2 4.7
2018-Jun-14 23:29N 28°29' W 016°14'0 0.0
2018-Jun-14 22:59N 28°29' W 016°14'0 0.0
2018-Jun-14 22:29N 28°29' W 016°14'0 0.0
2018-Jun-14 21:59N 28°29' W 016°14'0 0.0
2018-Jun-14 21:29N 28°29' W 016°14'0 0.0
2018-Jun-14 20:59N 28°29' W 016°14'0 0.0
2018-Jun-14 20:29N 28°29' W 016°14'0 0.0
2018-Jun-14 19:59N 28°29' W 016°14'0 0.0
2018-Jun-14 19:29N 28°29' W 016°14'0 0.0
2018-Jun-14 18:59N 28°29' W 016°14'0 0.0
2018-Jun-14 18:29N 28°29' W 016°14'0 0.0
2018-Jun-14 18:00N 28°29' W 016°14'1 1.8
2018-Jun-14 17:30N 28°29' W 016°13'3 6.9
2018-Jun-14 17:00N 28°29' W 016°09'713.7
2018-Jun-14 16:30N 28°33' W 016°03'913.8
2018-Jun-14 15:52N 28°40' W 015°56'713.9
2018-Jun-14 15:22N 28°44' W 015°50'613.7
2018-Jun-14 14:55N 28°49' W 015°45'613.6
2018-Jun-14 14:30N 28°53' W 015°40'713.6
2018-Jun-14 14:01N 28°57' W 015°35'713.8
2018-Jun-14 13:30N 29°02' W 015°29'714.0
2018-Jun-14 13:00N 29°07' W 015°23'813.9
2018-Jun-14 12:27N 29°12' W 015°17'3113.5
2018-Jun-14 10:08N 29°35' W 014°52'313.1
2018-Jun-14 09:52N 29°37' W 014°49'  
2018-Jun-09 05:03N 29°16' W 015°13'113.8
2018-Jun-09 04:57N 29°15' W 015°14'1214.0
2018-Jun-09 04:04N 29°07' W 015°24'414.1
2018-Jun-09 03:49N 29°04' W 015°27'514.0
2018-Jun-09 03:29N 29°01' W 015°31'714.2
2018-Jun-09 03:00N 28°56' W 015°36'714.3
2018-Jun-09 02:30N 28°51' W 015°42'714.4
2018-Jun-09 02:00N 28°46' W 015°48'714.4
2018-Jun-09 01:30N 28°41' W 015°54'714.3
2018-Jun-09 01:00N 28°36' W 015°60'714.1
2018-Jun-09 00:31N 28°31' W 016°06'813.3
2018-Jun-08 23:56N 28°29' W 016°14'1 1.0
2018-Jun-08 23:24N 28°29' W 016°14'0 0.0
2018-Jun-08 22:54N 28°29' W 016°14'0 0.0
2018-Jun-08 22:24N 28°29' W 016°14'0 0.0
2018-Jun-08 21:57N 28°29' W 016°14'0 0.0
2018-Jun-08 20:45N 28°29' W 016°14'0 0.0
2018-Jun-08 20:27N 28°29' W 016°14'0 0.0
2018-Jun-08 19:57N 28°29' W 016°14'0 0.0
2018-Jun-08 19:16N 28°29' W 016°14'0 0.5
2018-Jun-08 19:00N 28°29' W 016°14'2 4.3
2018-Jun-08 18:30N 28°27' W 016°12'4 7.7
2018-Jun-08 18:00N 28°26' W 016°08'714.5
2018-Jun-08 17:30N 28°24' W 016°00'714.0
2018-Jun-08 17:00N 28°21' W 015°53'713.8
2018-Jun-08 16:30N 28°19' W 015°46'713.8
2018-Jun-08 16:00N 28°17' W 015°38'713.5
2018-Jun-08 15:30N 28°14' W 015°31'713.3
2018-Jun-08 14:59N 28°12' W 015°24'4 8.0
2018-Jun-08 14:29N 28°08' W 015°25'1 2.5
2018-Jun-08 13:59N 28°09' W 015°25'0 0.0
2018-Jun-08 13:29N 28°09' W 015°25'0 0.0
2018-Jun-08 12:59N 28°09' W 015°25'0 0.0
2018-Jun-08 12:29N 28°09' W 015°25'0 0.0
2018-Jun-08 11:59N 28°09' W 015°25'0 0.0
2018-Jun-08 11:29N 28°09' W 015°25'0 0.0
2018-Jun-08 10:59N 28°09' W 015°25'0 0.0
2018-Jun-08 10:29N 28°09' W 015°25'0 0.0
2018-Jun-08 09:50N 28°09' W 015°25'0 0.0
2018-Jun-08 09:23N 28°09' W 015°25'0 0.0
2018-Jun-08 08:53N 28°09' W 015°25'0 0.0
2018-Jun-08 08:23N 28°09' W 015°25'0 0.0
2018-Jun-08 07:53N 28°09' W 015°25'0 0.0
2018-Jun-08 07:23N 28°09' W 015°25'0 0.0
2018-Jun-08 06:53N 28°09' W 015°25'0 0.0
2018-Jun-08 06:20N 28°09' W 015°25'0 0.3
2018-Jun-08 06:01N 28°09' W 015°25'2 4.8
2018-Jun-08 05:30N 28°07' W 015°23'510.1
2018-Jun-08 05:00N 28°12' W 015°22'612.2
2018-Jun-08 04:30N 28°14' W 015°29'611.7
2018-Jun-08 04:00N 28°15' W 015°35'611.3
2018-Jun-08 03:30N 28°16' W 015°42'510.1
2018-Jun-08 03:00N 28°14' W 015°36'5 9.5
2018-Jun-08 02:30N 28°13' W 015°42'510.8
2018-Jun-08 02:00N 28°13' W 015°48'810.8
2018-Jun-08 01:17N 28°15' W 015°56'511.4
2018-Jun-08 00:53N 28°18' W 016°00'511.4
2018-Jun-08 00:28N 28°21' W 016°04'611.7
2018-Jun-07 23:58N 28°25' W 016°09'511.6
2018-Jun-07 23:30N 28°28' W 016°14'1 0.2
2018-Jun-07 18:53N 28°29' W 016°14'0 0.8
2018-Jun-07 18:30N 28°29' W 016°14'510.7
2018-Jun-07 18:00N 28°30' W 016°08'511.0
2018-Jun-07 17:30N 28°33' W 016°03'510.9
2018-Jun-07 17:00N 28°37' W 015°59'510.8
2018-Jun-07 16:30N 28°41' W 015°54'510.8
2018-Jun-07 16:00N 28°45' W 015°50'611.0
2018-Jun-07 15:29N 28°49' W 015°45'511.0
2018-Jun-07 15:00N 28°52' W 015°41'511.0
2018-Jun-07 14:30N 28°56' W 015°36'510.8
2018-Jun-07 14:00N 28°60' W 015°32'510.9
2018-Jun-07 13:30N 29°04' W 015°28'510.8
2018-Jun-07 13:00N 29°07' W 015°23'610.9
2018-Jun-07 12:27N 29°12' W 015°18'511.0
2018-Jun-07 12:00N 29°15' W 015°14'1110.9
2018-Jun-07 10:58N 29°23' W 015°05'  

Dump ship's entire track history